Time;durP1;ratioP1;P1;durP2;ratioP2;P2;SDS_P1;SDS_P2;PMS_P1;PMS_P2;Temp;Humidity;BMP_temperature;BMP_pressure;BME280_temperature;BME280_humidity;BME280_pressure;Samples;Min_cycle;Max_cycle;Signal;HPM_P1;HPM_P2
2023/12/18 00:00:38;;;;;;;14.20;11.57;;;;;;;;;;4979465;28;20206;-87
2023/12/18 00:03:06;;;;;;;13.60;12.20;;;;;;;;;;4964279;28;20320;-86
2023/12/18 00:05:32;;;;;;;14.93;11.63;;;;;;;;;;4989201;28;20617;-85
2023/12/18 00:07:58;;;;;;;17.60;12.97;;;;;;;;;;4978696;28;20246;-88
2023/12/18 00:10:26;;;;;;;14.97;13.17;;;;;;;;;;4996034;28;20328;-88
2023/12/18 00:12:51;;;;;;;17.67;12.07;;;;;;;;;;4964306;28;20221;-84
2023/12/18 00:15:17;;;;;;;16.17;11.83;;;;;;;;;;4971833;28;20217;-85
2023/12/18 00:17:43;;;;;;;15.83;12.00;;;;;;;;;;4981411;28;20253;-85
2023/12/18 00:20:11;;;;;;;14.50;12.50;;;;;;;;;;5002095;28;20253;-84
2023/12/18 00:22:36;;;;;;;15.00;11.87;;;;;;;;;;4963729;28;20334;-87
2023/12/18 00:25:02;;;;;;;16.13;12.43;;;;;;;;;;4960330;28;20905;-87
2023/12/18 00:27:28;;;;;;;21.03;11.73;;;;;;;;;;4993585;28;20336;-85
2023/12/18 00:29:53;;;;;;;15.03;12.43;;;;;;;;;;4990634;28;20238;-86
2023/12/18 00:32:21;;;;;;;19.07;12.70;;;;;;;;;;4978576;28;20225;-87
2023/12/18 00:34:52;;;;;;;17.33;12.63;;;;;;;;;;4958074;28;20272;-87
2023/12/18 00:37:20;;;;;;;15.93;11.13;;;;;;;;;;4963089;28;20212;-88
2023/12/18 00:39:45;;;;;;;15.40;12.23;;;;;;;;;;4965081;28;20225;-87
2023/12/18 00:42:11;;;;;;;14.70;11.00;;;;;;;;;;4940487;28;20285;-85
2023/12/18 00:44:38;;;;;;;13.60;11.53;;;;;;;;;;4963467;28;20581;-84
2023/12/18 00:47:04;;;;;;;17.00;12.87;;;;;;;;;;4991177;28;20715;-87
2023/12/18 00:49:32;;;;;;;16.67;12.80;;;;;;;;;;4962400;28;20216;-86
2023/12/18 00:52:02;;;;;;;16.30;12.27;;;;;;;;;;4962005;28;20229;-86
2023/12/18 00:54:32;;;;;;;15.40;11.60;;;;;;;;;;5006228;28;20229;-86
2023/12/18 00:57:00;;;;;;;14.27;11.50;;;;;;;;;;4962416;28;20214;-88
2023/12/18 00:59:28;;;;;;;15.17;11.70;;;;;;;;;;4991202;28;20235;-86
2023/12/18 01:01:58;;;;;;;19.27;10.90;;;;;;;;;;4979049;28;20309;-84
2023/12/18 01:04:24;;;;;;;14.73;11.83;;;;;;;;;;4960440;28;20221;-86
2023/12/18 01:06:54;;;;;;;12.80;11.40;;;;;;;;;;4983842;28;20241;-86
2023/12/18 01:09:20;;;;;;;16.33;10.93;;;;;;;;;;4991982;28;20229;-87
2023/12/18 01:11:45;;;;;;;15.10;11.37;;;;;;;;;;4979178;28;20225;-84
2023/12/18 01:14:13;;;;;;;12.97;11.47;;;;;;;;;;4988511;28;20261;-84
2023/12/18 01:16:39;;;;;;;19.97;11.73;;;;;;;;;;4971472;28;20226;-85
2023/12/18 01:19:07;;;;;;;14.10;12.37;;;;;;;;;;4999904;28;20753;-83
2023/12/18 01:21:35;;;;;;;14.23;11.33;;;;;;;;;;4964705;28;20276;-87
2023/12/18 01:24:00;;;;;;;18.50;12.00;;;;;;;;;;4960202;28;20755;-85
2023/12/18 01:26:31;;;;;;;14.80;11.50;;;;;;;;;;4955788;28;20296;-84
2023/12/18 01:28:56;;;;;;;21.17;12.03;;;;;;;;;;4985028;28;20285;-84
2023/12/18 01:31:24;;;;;;;14.37;11.70;;;;;;;;;;4996865;28;20579;-85
2023/12/18 01:33:53;;;;;;;17.60;11.73;;;;;;;;;;4985340;28;20229;-84
2023/12/18 01:36:23;;;;;;;15.30;12.03;;;;;;;;;;4968628;28;20722;-86
2023/12/18 01:38:49;;;;;;;15.83;12.20;;;;;;;;;;4993286;28;20222;-84
2023/12/18 01:41:22;;;;;;;14.83;11.80;;;;;;;;;;4991357;28;20219;-86
2023/12/18 01:43:52;;;;;;;14.33;11.87;;;;;;;;;;4971669;28;20222;-87
2023/12/18 01:46:26;;;;;;;16.97;11.57;;;;;;;;;;4962517;28;20300;-85
2023/12/18 01:48:52;;;;;;;14.80;11.20;;;;;;;;;;4992136;28;20304;-84
2023/12/18 01:51:18;;;;;;;15.17;11.63;;;;;;;;;;4960096;28;20270;-84
2023/12/18 01:53:49;;;;;;;15.83;12.43;;;;;;;;;;4961654;28;20293;-86
2023/12/18 01:56:20;;;;;;;15.23;11.80;;;;;;;;;;4970359;28;20325;-87
2023/12/18 01:58:48;;;;;;;14.57;11.97;;;;;;;;;;5002474;28;20244;-80
2023/12/18 02:01:16;;;;;;;18.37;12.13;;;;;;;;;;4982284;28;20225;-82
2023/12/18 02:03:44;;;;;;;16.70;12.07;;;;;;;;;;4997731;28;20229;-83
2023/12/18 02:06:12;;;;;;;17.27;12.03;;;;;;;;;;4972933;28;20290;-84
2023/12/18 02:08:37;;;;;;;18.53;12.23;;;;;;;;;;4965688;28;20222;-85
2023/12/18 02:11:03;;;;;;;17.97;12.67;;;;;;;;;;4967418;28;20743;-83
2023/12/18 02:13:31;;;;;;;18.07;12.20;;;;;;;;;;5001214;28;20236;-84
2023/12/18 02:15:59;;;;;;;15.30;12.13;;;;;;;;;;4966521;28;20216;-82
2023/12/18 02:18:25;;;;;;;16.43;11.73;;;;;;;;;;4970546;28;20228;-83
2023/12/18 02:20:54;;;;;;;15.80;11.93;;;;;;;;;;4978936;28;20237;-83
2023/12/18 02:23:24;;;;;;;18.17;12.87;;;;;;;;;;4960845;28;20242;-85
2023/12/18 02:25:50;;;;;;;18.03;12.50;;;;;;;;;;4983531;28;20562;-83
2023/12/18 02:28:16;;;;;;;15.50;11.80;;;;;;;;;;4958250;28;20229;-85
2023/12/18 02:30:42;;;;;;;17.87;12.90;;;;;;;;;;5004440;28;20237;-86
2023/12/18 02:33:12;;;;;;;17.67;13.00;;;;;;;;;;4961412;28;20214;-86
2023/12/18 02:35:37;;;;;;;18.57;12.67;;;;;;;;;;4975890;28;20222;-84
2023/12/18 02:38:03;;;;;;;14.57;13.03;;;;;;;;;;4962704;28;20301;-87
2023/12/18 02:40:31;;;;;;;15.17;12.90;;;;;;;;;;4961336;28;20221;-87
2023/12/18 02:42:57;;;;;;;17.97;12.87;;;;;;;;;;4963819;28;20217;-84
2023/12/18 02:45:26;;;;;;;16.47;12.37;;;;;;;;;;4968872;28;20236;-84
2023/12/18 02:47:54;;;;;;;21.53;12.93;;;;;;;;;;4979571;28;20238;-85
2023/12/18 02:50:22;;;;;;;15.70;13.80;;;;;;;;;;4996478;28;20222;-86
2023/12/18 02:52:52;;;;;;;15.50;13.00;;;;;;;;;;4951203;28;20277;-83
2023/12/18 02:55:22;;;;;;;14.57;12.60;;;;;;;;;;5005948;28;20533;-87
2023/12/18 02:57:47;;;;;;;15.53;12.77;;;;;;;;;;4964312;28;20228;-87
2023/12/18 03:00:13;;;;;;;18.67;14.13;;;;;;;;;;4947800;28;20225;-84
2023/12/18 03:02:42;;;;;;;20.57;13.57;;;;;;;;;;4979616;28;20221;-84
2023/12/18 03:05:10;;;;;;;19.57;14.37;;;;;;;;;;4990714;28;20305;-85
2023/12/18 03:07:36;;;;;;;15.93;14.23;;;;;;;;;;4964406;28;20256;-85
2023/12/18 03:10:02;;;;;;;18.63;14.50;;;;;;;;;;4979761;28;20978;-83
2023/12/18 03:12:28;;;;;;;25.50;15.13;;;;;;;;;;4965451;28;20222;-84
2023/12/18 03:14:56;;;;;;;21.07;15.47;;;;;;;;;;4985815;28;20221;-85
2023/12/18 03:17:21;;;;;;;16.53;14.80;;;;;;;;;;4962496;28;20945;-85
2023/12/18 03:19:47;;;;;;;19.10;15.20;;;;;;;;;;4966912;28;20748;-85
2023/12/18 03:22:14;;;;;;;25.00;16.23;;;;;;;;;;4993667;28;20252;-86
2023/12/18 03:24:44;;;;;;;21.47;17.17;;;;;;;;;;4980787;28;20217;-88
2023/12/18 03:27:12;;;;;;;19.03;16.77;;;;;;;;;;4991531;28;20249;-87
2023/12/18 03:29:38;;;;;;;19.47;15.30;;;;;;;;;;4955154;28;20232;-83
2023/12/18 03:32:04;;;;;;;23.73;17.50;;;;;;;;;;4964914;28;20618;-83
2023/12/18 03:34:30;;;;;;;20.30;16.60;;;;;;;;;;4964446;28;20237;-84
2023/12/18 03:36:55;;;;;;;21.80;17.17;;;;;;;;;;4975402;28;20224;-85
2023/12/18 03:39:21;;;;;;;24.53;18.30;;;;;;;;;;4982682;28;20217;-83
2023/12/18 03:41:46;;;;;;;22.30;18.13;;;;;;;;;;4981632;28;20221;-83
2023/12/18 03:44:16;;;;;;;22.27;17.90;;;;;;;;;;4966377;28;20232;-84
2023/12/18 03:46:42;;;;;;;22.27;18.27;;;;;;;;;;4981140;28;20759;-83
2023/12/18 03:49:08;;;;;;;19.40;17.20;;;;;;;;;;4962265;28;20237;-84
2023/12/18 03:51:36;;;;;;;21.40;19.20;;;;;;;;;;4961166;28;20220;-84
2023/12/18 03:54:01;;;;;;;22.50;18.80;;;;;;;;;;4982497;28;20595;-84
2023/12/18 03:56:27;;;;;;;22.10;18.60;;;;;;;;;;4979346;28;20791;-82
2023/12/18 04:02:41;;;;;;;23.23;17.90;;;;;;;;;;4991474;28;20231;-84
2023/12/18 04:05:09;;;;;;;25.77;19.30;;;;;;;;;;4963209;28;20226;-84
2023/12/18 04:07:37;;;;;;;25.97;18.93;;;;;;;;;;4967294;28;20225;-83
2023/12/18 04:10:07;;;;;;;27.20;18.00;;;;;;;;;;4997614;28;20213;-83
2023/12/18 04:12:32;;;;;;;23.17;18.50;;;;;;;;;;5008230;28;20281;-83
2023/12/18 04:14:58;;;;;;;26.03;20.23;;;;;;;;;;4965807;28;20214;-84
2023/12/18 04:17:23;;;;;;;23.87;18.77;;;;;;;;;;4963113;28;20229;-84
2023/12/18 04:19:49;;;;;;;23.27;18.03;;;;;;;;;;4977225;28;20225;-82
2023/12/18 04:22:15;;;;;;;23.13;18.93;;;;;;;;;;4965525;28;20222;-81
2023/12/18 04:24:43;;;;;;;27.90;20.33;;;;;;;;;;4979820;28;20228;-85
2023/12/18 04:27:11;;;;;;;22.03;18.97;;;;;;;;;;4963361;28;20237;-82
2023/12/18 04:29:37;;;;;;;24.50;21.98;;;;;;;;;;4977839;28;20437;-84
2023/12/18 04:32:06;;;;;;;23.40;19.33;;;;;;;;;;4995922;28;20224;-83
2023/12/18 04:34:34;;;;;;;23.07;19.80;;;;;;;;;;4992568;28;20284;-82
2023/12/18 04:37:00;;;;;;;26.97;19.87;;;;;;;;;;4991725;28;20710;-86
2023/12/18 04:39:30;;;;;;;25.23;20.67;;;;;;;;;;4955827;28;20854;-84
2023/12/18 04:41:55;;;;;;;25.57;21.17;;;;;;;;;;4974557;28;20218;-84
2023/12/18 04:44:24;;;;;;;28.53;21.33;;;;;;;;;;4960654;28;20230;-85
2023/12/18 04:46:52;;;;;;;24.60;21.10;;;;;;;;;;4978111;28;20686;-85
2023/12/18 04:49:19;;;;;;;30.30;21.30;;;;;;;;;;4973089;28;20213;-87
2023/12/18 04:51:45;;;;;;;24.10;20.20;;;;;;;;;;4973458;28;20613;-80
2023/12/18 04:54:11;;;;;;;28.77;20.97;;;;;;;;;;4998098;28;20230;-82
2023/12/18 04:56:41;;;;;;;27.50;22.10;;;;;;;;;;4955703;28;20218;-79
2023/12/18 04:59:07;;;;;;;23.27;20.90;;;;;;;;;;4969587;28;20222;-80
2023/12/18 05:01:32;;;;;;;27.63;21.90;;;;;;;;;;4989079;28;20228;-78
2023/12/18 05:03:58;;;;;;;27.20;22.53;;;;;;;;;;4998966;28;20226;-79
2023/12/18 05:06:27;;;;;;;30.13;22.60;;;;;;;;;;4976830;28;20289;-79
2023/12/18 05:08:53;;;;;;;27.47;21.50;;;;;;;;;;4998343;28;20220;-77
2023/12/18 05:11:22;;;;;;;25.53;21.27;;;;;;;;;;4990205;28;20728;-81
2023/12/18 05:13:48;;;;;;;22.90;20.50;;;;;;;;;;5002718;28;20606;-78
2023/12/18 05:16:13;;;;;;;30.43;21.90;;;;;;;;;;4981235;28;20217;-80
2023/12/18 05:18:42;;;;;;;30.60;22.77;;;;;;;;;;4974773;28;20272;-79
2023/12/18 05:21:07;;;;;;;30.60;23.60;;;;;;;;;;5005406;28;20493;-80
2023/12/18 05:23:35;;;;;;;25.40;22.63;;;;;;;;;;4987229;28;20745;-78
2023/12/18 05:26:00;;;;;;;28.27;23.07;;;;;;;;;;4974526;28;20233;-79
2023/12/18 05:28:27;;;;;;;28.37;23.43;;;;;;;;;;4989434;28;20244;-79
2023/12/18 05:30:55;;;;;;;26.73;22.80;;;;;;;;;;4991540;28;20764;-79
2023/12/18 05:33:20;;;;;;;27.07;23.60;;;;;;;;;;4959906;28;20336;-80
2023/12/18 05:35:46;;;;;;;28.90;24.63;;;;;;;;;;4961329;28;20575;-79
2023/12/18 05:38:16;;;;;;;26.23;23.40;;;;;;;;;;4957182;28;20222;-80
2023/12/18 05:40:41;;;;;;;33.70;22.77;;;;;;;;;;4990717;28;20322;-80
2023/12/18 05:43:09;;;;;;;27.60;24.47;;;;;;;;;;5003569;28;20222;-79
2023/12/18 05:45:35;;;;;;;26.57;23.73;;;;;;;;;;4989457;28;20637;-79
2023/12/18 05:48:00;;;;;;;30.50;23.27;;;;;;;;;;4994577;28;20220;-79
2023/12/18 05:50:26;;;;;;;28.17;23.10;;;;;;;;;;4960199;28;20225;-79
2023/12/18 05:52:52;;;;;;;27.73;24.47;;;;;;;;;;4982958;28;20240;-81
2023/12/18 05:55:26;;;;;;;31.93;23.67;;;;;;;;;;5013334;28;20228;-80
2023/12/18 05:57:54;;;;;;;35.40;24.73;;;;;;;;;;4999685;28;20226;-80
2023/12/18 06:00:25;;;;;;;28.17;24.10;;;;;;;;;;4971464;28;20236;-81
2023/12/18 06:02:50;;;;;;;27.83;24.47;;;;;;;;;;5002635;28;20786;-80
2023/12/18 06:05:16;;;;;;;31.17;25.53;;;;;;;;;;5000669;28;20214;-79
2023/12/18 06:07:41;;;;;;;29.90;24.77;;;;;;;;;;4959156;28;20244;-80
2023/12/18 06:10:08;;;;;;;30.07;25.10;;;;;;;;;;4956942;28;20226;-78
2023/12/18 06:12:36;;;;;;;30.33;25.30;;;;;;;;;;4964641;28;20229;-80
2023/12/18 06:15:04;;;;;;;28.33;25.00;;;;;;;;;;4998692;28;20228;-79
2023/12/18 06:17:32;;;;;;;32.03;24.87;;;;;;;;;;4974330;28;20699;-80
2023/12/18 06:19:58;;;;;;;27.00;24.17;;;;;;;;;;4954568;28;20224;-81
2023/12/18 06:22:24;;;;;;;31.30;24.60;;;;;;;;;;4973619;28;20232;-79
2023/12/18 06:24:49;;;;;;;33.33;25.47;;;;;;;;;;4964720;28;20260;-80
2023/12/18 06:27:15;;;;;;;30.40;26.03;;;;;;;;;;4985358;28;20229;-78
2023/12/18 06:29:42;;;;;;;32.00;25.17;;;;;;;;;;4972653;28;20236;-80
2023/12/18 06:32:08;;;;;;;32.00;26.93;;;;;;;;;;4985640;28;20278;-79
2023/12/18 06:34:34;;;;;;;33.30;26.57;;;;;;;;;;4952590;28;20232;-79
2023/12/18 06:37:02;;;;;;;32.53;26.00;;;;;;;;;;4987020;28;20214;-79
2023/12/18 06:39:28;;;;;;;33.60;26.43;;;;;;;;;;4989879;28;20232;-79
2023/12/18 06:41:53;;;;;;;28.57;25.50;;;;;;;;;;4961770;28;20213;-79
2023/12/18 06:44:19;;;;;;;30.07;25.37;;;;;;;;;;4976219;28;20283;-79
2023/12/18 06:46:45;;;;;;;32.40;27.90;;;;;;;;;;4995072;28;20221;-80
2023/12/18 06:49:12;;;;;;;34.60;27.40;;;;;;;;;;5001912;28;20218;-80
2023/12/18 06:51:40;;;;;;;35.07;27.10;;;;;;;;;;4968365;28;20228;-79
2023/12/18 06:54:08;;;;;;;41.23;28.97;;;;;;;;;;4975205;28;20248;-79
2023/12/18 06:56:39;;;;;;;34.53;27.43;;;;;;;;;;5018031;28;20238;-79
2023/12/18 06:59:07;;;;;;;34.80;28.33;;;;;;;;;;4988410;28;20236;-78
2023/12/18 07:01:33;;;;;;;32.40;26.53;;;;;;;;;;4985393;28;20230;-78
2023/12/18 07:04:02;;;;;;;29.70;26.43;;;;;;;;;;4997601;28;20228;-79
2023/12/18 07:06:32;;;;;;;33.87;26.53;;;;;;;;;;4992389;28;20226;-77
2023/12/18 07:08:57;;;;;;;33.00;27.50;;;;;;;;;;4965997;28;20241;-79
2023/12/18 07:11:25;;;;;;;36.90;28.50;;;;;;;;;;4974135;28;20229;-79
2023/12/18 07:13:51;;;;;;;31.90;26.80;;;;;;;;;;4998839;28;20233;-79
2023/12/18 07:16:23;;;;;;;29.17;25.27;;;;;;;;;;4996772;28;20237;-78
2023/12/18 07:18:51;;;;;;;27.73;24.73;;;;;;;;;;4991543;28;20224;-79
2023/12/18 07:21:16;;;;;;;30.77;27.20;;;;;;;;;;4968869;28;20249;-79
2023/12/18 07:23:44;;;;;;;37.40;27.90;;;;;;;;;;4989554;28;20214;-80
2023/12/18 07:26:12;;;;;;;34.47;27.83;;;;;;;;;;4992742;28;20312;-80
2023/12/18 07:28:41;;;;;;;33.57;27.43;;;;;;;;;;4999223;28;20257;-80
2023/12/18 07:31:07;;;;;;;38.47;28.43;;;;;;;;;;4957779;28;20309;-79
2023/12/18 07:33:33;;;;;;;30.40;27.00;;;;;;;;;;4978403;28;20295;-77
2023/12/18 07:36:04;;;;;;;32.33;27.10;;;;;;;;;;4987309;28;20221;-79
2023/12/18 07:38:32;;;;;;;31.27;25.93;;;;;;;;;;4965089;28;20237;-80
2023/12/18 07:40:57;;;;;;;32.57;26.40;;;;;;;;;;4960008;28;20233;-79
2023/12/18 07:43:23;;;;;;;31.27;26.90;;;;;;;;;;4978130;28;20222;-79
2023/12/18 07:45:51;;;;;;;32.43;27.53;;;;;;;;;;4971914;28;20226;-78
2023/12/18 07:48:19;;;;;;;35.30;27.20;;;;;;;;;;5014220;28;20230;-80
2023/12/18 07:50:45;;;;;;;30.60;27.37;;;;;;;;;;5005539;28;20271;-79
2023/12/18 07:53:10;;;;;;;34.33;28.87;;;;;;;;;;5006267;28;20241;-79
2023/12/18 07:55:36;;;;;;;34.33;27.90;;;;;;;;;;4987752;28;20248;-78
2023/12/18 07:58:01;;;;;;;33.17;26.90;;;;;;;;;;5008613;28;20220;-79
2023/12/18 08:00:30;;;;;;;34.57;27.07;;;;;;;;;;5014802;28;20230;-81
2023/12/18 08:02:59;;;;;;;39.53;27.93;;;;;;;;;;4982970;28;20894;-81
2023/12/18 08:05:25;;;;;;;33.37;26.93;;;;;;;;;;4985726;28;20329;-80
2023/12/18 08:07:50;;;;;;;30.10;26.00;;;;;;;;;;4961250;28;20665;-80
2023/12/18 08:10:16;;;;;;;34.43;27.50;;;;;;;;;;4960170;28;20232;-80
2023/12/18 08:12:42;;;;;;;36.43;27.50;;;;;;;;;;4975748;28;20222;-79
2023/12/18 08:15:12;;;;;;;33.27;27.57;;;;;;;;;;4987602;28;20272;-78
2023/12/18 08:17:43;;;;;;;32.30;27.17;;;;;;;;;;4995696;28;20226;-78
2023/12/18 08:20:09;;;;;;;29.50;25.23;;;;;;;;;;4974366;28;20238;-80
2023/12/18 08:22:34;;;;;;;35.67;27.97;;;;;;;;;;4957792;28;20290;-81
2023/12/18 08:25:01;;;;;;;33.63;26.47;;;;;;;;;;4960936;28;20241;-78
2023/12/18 08:27:28;;;;;;;35.20;27.13;;;;;;;;;;4975407;28;20240;-79
2023/12/18 08:29:56;;;;;;;33.97;26.97;;;;;;;;;;4962565;28;20225;-79
2023/12/18 08:32:22;;;;;;;32.47;26.90;;;;;;;;;;4991063;28;20206;-80
2023/12/18 08:34:50;;;;;;;35.17;28.30;;;;;;;;;;4968594;28;20217;-80
2023/12/18 08:37:16;;;;;;;32.50;27.90;;;;;;;;;;4986030;28;20241;-80
2023/12/18 08:39:41;;;;;;;34.37;27.67;;;;;;;;;;4967970;28;20637;-80
2023/12/18 08:42:07;;;;;;;33.73;27.83;;;;;;;;;;4976627;28;20217;-79
2023/12/18 08:44:34;;;;;;;35.83;30.53;;;;;;;;;;4982872;28;20230;-79
2023/12/18 08:47:02;;;;;;;43.60;36.27;;;;;;;;;;4969538;28;20379;-79
2023/12/18 08:49:28;;;;;;;81.30;66.23;;;;;;;;;;4949690;28;20230;-81
2023/12/18 08:51:53;;;;;;;36.97;28.30;;;;;;;;;;4974585;28;20236;-80
2023/12/18 08:54:19;;;;;;;34.27;29.17;;;;;;;;;;4975335;28;20217;-80
2023/12/18 08:56:48;;;;;;;33.10;28.17;;;;;;;;;;4987114;28;20240;-80
2023/12/18 08:59:13;;;;;;;35.30;27.50;;;;;;;;;;4981845;28;20222;-80
2023/12/18 09:01:39;;;;;;;29.53;26.40;;;;;;;;;;4988476;28;20309;-79
2023/12/18 09:04:06;;;;;;;33.30;29.23;;;;;;;;;;4995211;28;20283;-80
2023/12/18 09:06:34;;;;;;;35.10;28.00;;;;;;;;;;4974293;28;20221;-80
2023/12/18 09:09:01;;;;;;;39.10;27.30;;;;;;;;;;4959003;28;20249;-80
2023/12/18 09:11:33;;;;;;;30.77;26.23;;;;;;;;;;5004571;28;20253;-80
2023/12/18 09:13:59;;;;;;;31.77;27.60;;;;;;;;;;5002874;28;20219;-79
2023/12/18 09:16:24;;;;;;;30.33;26.83;;;;;;;;;;4972404;28;20584;-80
2023/12/18 09:18:50;;;;;;;34.13;27.60;;;;;;;;;;4955404;28;20217;-79
2023/12/18 09:21:15;;;;;;;34.33;27.60;;;;;;;;;;4963354;28;20221;-80
2023/12/18 09:23:41;;;;;;;36.60;27.33;;;;;;;;;;4991894;28;20214;-79
2023/12/18 09:26:07;;;;;;;32.47;27.13;;;;;;;;;;5005478;28;20217;-78
2023/12/18 09:28:38;;;;;;;38.53;28.30;;;;;;;;;;4954250;28;20687;-78
2023/12/18 09:31:05;;;;;;;30.07;26.27;;;;;;;;;;4988129;28;20290;-78
2023/12/18 09:33:31;;;;;;;34.70;26.53;;;;;;;;;;4999563;28;20237;-79
2023/12/18 09:36:00;;;;;;;37.87;26.53;;;;;;;;;;4979837;28;20286;-80
2023/12/18 09:38:28;;;;;;;29.17;25.73;;;;;;;;;;4985874;28;20233;-78
2023/12/18 09:40:56;;;;;;;31.53;26.80;;;;;;;;;;4974617;28;20253;-80
2023/12/18 09:43:22;;;;;;;31.27;26.13;;;;;;;;;;4982132;28;20717;-81
2023/12/18 09:45:47;;;;;;;29.17;25.10;;;;;;;;;;4970615;28;20234;-78
2023/12/18 09:48:14;;;;;;;38.93;26.50;;;;;;;;;;4933556;28;20369;-79
2023/12/18 09:50:39;;;;;;;37.20;26.87;;;;;;;;;;4956066;28;20250;-80
2023/12/18 09:53:10;;;;;;;36.57;26.47;;;;;;;;;;4985315;28;20244;-80
2023/12/18 09:55:36;;;;;;;30.93;24.27;;;;;;;;;;4979949;28;21040;-77
2023/12/18 09:58:02;;;;;;;26.70;23.87;;;;;;;;;;4979052;28;20225;-79
2023/12/18 10:00:28;;;;;;;30.43;24.57;;;;;;;;;;4957694;28;20961;-79
2023/12/18 10:02:57;;;;;;;28.50;23.60;;;;;;;;;;4973405;28;20252;-79
2023/12/18 10:05:24;;;;;;;27.00;24.10;;;;;;;;;;4987536;28;20721;-79
2023/12/18 10:07:55;;;;;;;29.50;23.47;;;;;;;;;;4986629;28;20715;-78
2023/12/18 10:10:23;;;;;;;26.03;23.33;;;;;;;;;;4991073;28;20253;-80
2023/12/18 10:12:51;;;;;;;30.60;23.27;;;;;;;;;;5001760;28;20264;-79
2023/12/18 10:15:19;;;;;;;31.93;24.17;;;;;;;;;;4962526;28;20221;-78
2023/12/18 10:17:45;;;;;;;32.80;23.63;;;;;;;;;;4997909;28;20221;-80
2023/12/18 10:20:15;;;;;;;24.93;22.20;;;;;;;;;;4961640;28;20233;-79
2023/12/18 10:22:44;;;;;;;29.30;24.20;;;;;;;;;;4975551;28;20241;-78
2023/12/18 10:25:16;;;;;;;25.07;21.87;;;;;;;;;;4998067;28;20214;-78
2023/12/18 10:27:45;;;;;;;30.63;22.50;;;;;;;;;;4976133;28;20552;-79
2023/12/18 10:30:11;;;;;;;28.87;23.63;;;;;;;;;;4961844;28;20221;-77
2023/12/18 10:32:37;;;;;;;27.13;23.07;;;;;;;;;;4968518;28;20245;-78
2023/12/18 10:35:04;;;;;;;27.87;22.33;;;;;;;;;;5000451;28;20230;-79
2023/12/18 10:37:30;;;;;;;30.00;22.43;;;;;;;;;;4978774;28;20229;-78
2023/12/18 10:40:03;;;;;;;25.30;22.07;;;;;;;;;;5016720;28;20319;-80
2023/12/18 10:42:33;;;;;;;30.13;22.73;;;;;;;;;;4995005;28;20657;-79
2023/12/18 10:44:59;;;;;;;31.83;26.87;;;;;;;;;;5007328;28;20232;-80
2023/12/18 10:47:28;;;;;;;34.03;28.53;;;;;;;;;;4997891;28;21294;-81
2023/12/18 10:49:55;;;;;;;26.00;20.93;;;;;;;;;;5006555;28;20221;-79
2023/12/18 10:52:21;;;;;;;29.53;21.90;;;;;;;;;;4986428;28;20205;-81
2023/12/18 10:54:49;;;;;;;27.50;22.03;;;;;;;;;;4977110;28;20236;-80
2023/12/18 10:57:17;;;;;;;28.50;22.60;;;;;;;;;;4956483;28;20686;-79
2023/12/18 10:59:46;;;;;;;26.43;21.83;;;;;;;;;;4969282;28;20280;-80
2023/12/18 11:02:11;;;;;;;27.17;23.07;;;;;;;;;;4956964;28;20222;-78
2023/12/18 11:04:37;;;;;;;24.57;21.90;;;;;;;;;;4989238;28;20221;-77
2023/12/18 11:07:03;;;;;;;25.63;20.90;;;;;;;;;;4969393;28;20233;-79
2023/12/18 11:09:28;;;;;;;29.47;22.37;;;;;;;;;;4985073;28;20229;-78
2023/12/18 11:11:58;;;;;;;26.17;22.43;;;;;;;;;;4974136;28;20232;-80
2023/12/18 11:15:09;;;;;;;24.17;21.63;;;;;;;;;;4981305;28;20226;-78
2023/12/18 11:17:38;;;;;;;23.40;21.03;;;;;;;;;;4973053;28;20232;-78
2023/12/18 11:20:27;;;;;;;23.47;20.97;;;;;;;;;;4998672;28;20226;-79
2023/12/18 11:22:54;;;;;;;23.33;20.90;;;;;;;;;;4997077;28;20233;-81
2023/12/18 11:25:20;;;;;;;24.67;22.07;;;;;;;;;;5003363;28;20272;-77
2023/12/18 11:27:50;;;;;;;25.40;21.40;;;;;;;;;;4970513;28;20242;-78
2023/12/18 11:30:27;;;;;;;26.73;22.50;;;;;;;;;;4957649;28;20340;-78
2023/12/18 11:32:53;;;;;;;28.93;23.60;;;;;;;;;;4988344;28;20229;-80
2023/12/18 11:35:27;;;;;;;28.67;22.57;;;;;;;;;;5002264;28;20228;-77
2023/12/18 11:37:57;;;;;;;26.20;23.37;;;;;;;;;;4993545;28;20512;-80
2023/12/18 11:40:32;;;;;;;31.97;25.77;;;;;;;;;;5001168;28;20221;-78
2023/12/18 11:42:58;;;;;;;32.80;25.90;;;;;;;;;;4989212;28;20229;-79
2023/12/18 11:45:26;;;;;;;29.97;24.97;;;;;;;;;;5012350;28;20251;-78
2023/12/18 11:47:58;;;;;;;27.83;25.00;;;;;;;;;;4989503;28;20320;-79
2023/12/18 11:50:26;;;;;;;29.77;25.50;;;;;;;;;;4987671;28;20296;-78
2023/12/18 11:52:59;;;;;;;30.07;25.70;;;;;;;;;;4971451;28;20253;-79
2023/12/18 11:55:39;;;;;;;31.10;26.03;;;;;;;;;;4966538;28;20615;-79
2023/12/18 11:58:05;;;;;;;30.00;26.10;;;;;;;;;;4980314;28;20257;-79
2023/12/18 12:00:31;;;;;;;30.77;26.50;;;;;;;;;;4974364;28;20271;-78
2023/12/18 12:03:02;;;;;;;30.70;27.30;;;;;;;;;;5000192;28;20233;-80
2023/12/18 12:05:31;;;;;;;31.90;27.20;;;;;;;;;;4957643;28;20844;-79
2023/12/18 12:07:57;;;;;;;29.83;26.73;;;;;;;;;;4967128;28;20249;-78
2023/12/18 12:10:23;;;;;;;34.13;27.67;;;;;;;;;;4956605;28;20237;-77
2023/12/18 12:12:54;;;;;;;36.47;27.87;;;;;;;;;;4983728;28;20231;-79
2023/12/18 12:15:24;;;;;;;32.77;27.23;;;;;;;;;;4982237;28;20221;-79
2023/12/18 12:17:52;;;;;;;34.03;28.53;;;;;;;;;;4987739;28;20705;-78
2023/12/18 12:20:22;;;;;;;32.43;28.00;;;;;;;;;;4989900;28;20230;-80
2023/12/18 12:22:51;;;;;;;32.40;27.67;;;;;;;;;;4972053;28;20650;-80
2023/12/18 12:25:16;;;;;;;32.83;27.50;;;;;;;;;;4959522;28;20229;-79
2023/12/18 12:27:42;;;;;;;33.70;28.00;;;;;;;;;;4986150;28;20764;-79
2023/12/18 12:30:10;;;;;;;30.43;26.77;;;;;;;;;;4988289;28;20738;-79
2023/12/18 12:32:39;;;;;;;32.67;27.43;;;;;;;;;;4974531;28;20253;-80
2023/12/18 12:35:07;;;;;;;34.90;28.43;;;;;;;;;;4968747;28;20228;-80
2023/12/18 12:37:33;;;;;;;31.00;27.70;;;;;;;;;;4966608;28;20268;-79
2023/12/18 12:40:07;;;;;;;31.63;28.20;;;;;;;;;;4969275;28;20237;-81
2023/12/18 12:42:38;;;;;;;35.10;29.03;;;;;;;;;;4976236;28;20234;-78
2023/12/18 12:45:09;;;;;;;33.83;29.23;;;;;;;;;;5009051;28;20222;-80
2023/12/18 12:47:34;;;;;;;36.70;28.67;;;;;;;;;;5003295;28;20234;-78
2023/12/18 12:50:06;;;;;;;34.67;29.87;;;;;;;;;;4979334;28;20265;-79
2023/12/18 12:52:36;;;;;;;33.37;29.80;;;;;;;;;;4999119;28;20287;-78
2023/12/18 12:55:01;;;;;;;31.87;28.30;;;;;;;;;;4935544;28;20221;-78
2023/12/18 12:57:27;;;;;;;31.43;27.87;;;;;;;;;;4933952;28;20619;-77
2023/12/18 12:59:53;;;;;;;33.10;29.30;;;;;;;;;;4958082;28;20268;-77
2023/12/18 13:02:19;;;;;;;34.43;30.73;;;;;;;;;;4982383;28;20214;-78
2023/12/18 13:04:45;;;;;;;33.30;28.57;;;;;;;;;;4985395;28;20230;-78
2023/12/18 13:07:11;;;;;;;31.87;28.57;;;;;;;;;;4960846;28;20257;-77
2023/12/18 13:09:37;;;;;;;33.00;27.87;;;;;;;;;;4954817;28;21988;-78
2023/12/18 13:12:04;;;;;;;36.43;30.97;;;;;;;;;;4983865;28;20233;-78
2023/12/18 13:14:30;;;;;;;47.50;38.17;;;;;;;;;;5002895;28;20245;-77
2023/12/18 13:16:56;;;;;;;34.10;29.20;;;;;;;;;;4959422;28;20218;-79
2023/12/18 13:19:22;;;;;;;32.73;29.13;;;;;;;;;;4987011;28;20964;-79
2023/12/18 13:21:47;;;;;;;29.87;26.70;;;;;;;;;;4957594;28;20264;-77
2023/12/18 13:24:13;;;;;;;30.53;27.27;;;;;;;;;;4970391;28;20225;-77
2023/12/18 13:26:39;;;;;;;31.10;25.73;;;;;;;;;;4951137;28;20645;-77
2023/12/18 13:29:05;;;;;;;30.83;24.70;;;;;;;;;;4961770;28;20218;-77
2023/12/18 13:31:33;;;;;;;30.33;24.60;;;;;;;;;;4973861;28;20228;-78
2023/12/18 13:34:03;;;;;;;29.93;27.03;;;;;;;;;;4957325;28;20226;-77
2023/12/18 13:36:32;;;;;;;31.13;26.43;;;;;;;;;;5000382;28;20225;-78
2023/12/18 13:38:58;;;;;;;27.67;24.77;;;;;;;;;;4990327;28;20601;-77
2023/12/18 13:41:33;;;;;;;31.53;26.80;;;;;;;;;;4958585;28;20229;-78
2023/12/18 13:43:59;;;;;;;35.30;27.23;;;;;;;;;;4960503;28;20228;-77
2023/12/18 13:46:25;;;;;;;32.93;28.00;;;;;;;;;;4982434;28;20292;-78
2023/12/18 13:48:51;;;;;;;30.03;26.87;;;;;;;;;;4960586;28;20285;-78
2023/12/18 13:51:17;;;;;;;30.00;26.50;;;;;;;;;;4986081;28;20227;-79
2023/12/18 13:53:42;;;;;;;30.03;26.70;;;;;;;;;;5006565;28;20723;-79
2023/12/18 13:56:09;;;;;;;35.87;28.20;;;;;;;;;;4962447;28;20272;-77
2023/12/18 13:58:35;;;;;;;29.73;26.53;;;;;;;;;;4951419;28;20209;-78
2023/12/18 14:01:01;;;;;;;32.27;28.10;;;;;;;;;;4985216;28;20229;-78
2023/12/18 14:03:27;;;;;;;32.83;26.97;;;;;;;;;;5007986;28;20291;-78
2023/12/18 14:05:52;;;;;;;32.47;28.93;;;;;;;;;;4991830;28;20227;-79
2023/12/18 14:08:18;;;;;;;35.43;29.03;;;;;;;;;;4979532;28;20292;-78
2023/12/18 14:10:44;;;;;;;31.70;27.13;;;;;;;;;;4948370;28;20221;-77
2023/12/18 14:13:12;;;;;;;36.30;28.70;;;;;;;;;;4966665;28;20214;-77
2023/12/18 14:15:38;;;;;;;32.43;27.73;;;;;;;;;;4974297;28;20633;-78
2023/12/18 14:18:04;;;;;;;32.40;28.93;;;;;;;;;;4999717;28;20279;-79
2023/12/18 14:20:30;;;;;;;30.20;26.77;;;;;;;;;;4984170;28;20317;-80